createdAt,value
2018-09-24T00:00:28.192Z,0.60
2018-09-24T00:01:28.415Z,0.50
2018-09-24T00:02:28.642Z,0.40
2018-09-24T00:03:28.867Z,0.40
2018-09-24T00:04:29.090Z,0.40
2018-09-24T00:05:29.315Z,0.30
2018-09-24T00:06:29.536Z,0.90
2018-09-24T00:07:29.760Z,0.60
2018-09-24T00:08:29.987Z,0.40
2018-09-24T00:09:30.210Z,0.40
2018-09-24T00:10:30.439Z,0.80
2018-09-24T00:11:30.667Z,0.40
2018-09-24T00:12:30.888Z,0.90
2018-09-24T00:13:31.110Z,0.30
2018-09-24T00:14:31.339Z,0.30
2018-09-24T00:15:31.560Z,0.40
2018-09-24T00:16:31.787Z,0.80
2018-09-24T00:17:32.013Z,0.40
2018-09-24T00:18:32.233Z,0.40
2018-09-24T00:19:32.458Z,0.30
2018-09-24T00:20:32.683Z,0.50
2018-09-24T00:21:32.908Z,0.40
2018-09-24T00:22:33.138Z,0.90
2018-09-24T00:23:33.356Z,0.80
2018-09-24T00:24:33.582Z,0.30
2018-09-24T00:25:33.803Z,0.50
2018-09-24T00:26:34.032Z,0.50
2018-09-24T00:27:34.252Z,0.30
2018-09-24T00:28:34.473Z,0.50
2018-09-24T00:29:34.701Z,0.40
2018-09-24T00:30:34.926Z,0.30
2018-09-24T00:31:35.148Z,1.30
2018-09-24T00:32:35.372Z,0.50
2018-09-24T00:33:35.595Z,0.60
2018-09-24T00:34:35.823Z,0.30
2018-09-24T00:35:36.048Z,0.70
2018-09-24T00:36:36.271Z,0.30
2018-09-24T00:37:36.498Z,0.40
2018-09-24T00:38:36.721Z,0.70
2018-09-24T00:39:36.946Z,0.40
2018-09-24T00:40:37.171Z,0.60
2018-09-24T00:41:37.402Z,0.50
2018-09-24T00:42:37.621Z,0.40
2018-09-24T00:43:37.847Z,0.80
2018-09-24T00:44:38.073Z,0.60
2018-09-24T00:45:38.316Z,0.40
2018-09-24T00:46:38.525Z,0.50
2018-09-24T00:47:38.746Z,0.40
2018-09-24T00:48:38.971Z,0.60
2018-09-24T00:49:39.185Z,0.30
2018-09-24T00:50:39.385Z,0.40
2018-09-24T00:51:39.612Z,0.40
2018-09-24T00:52:39.835Z,0.40
2018-09-24T00:53:40.059Z,0.40
2018-09-24T00:54:40.284Z,0.70
2018-09-24T00:55:40.507Z,0.60
2018-09-24T00:56:40.735Z,0.40
2018-09-24T00:57:40.960Z,0.50
2018-09-24T00:58:41.192Z,1.00
2018-09-24T00:59:41.400Z,0.40
2018-09-24T01:00:41.618Z,0.30
2018-09-24T01:01:41.842Z,0.70
2018-09-24T01:02:42.067Z,0.50
2018-09-24T01:03:42.292Z,0.50
2018-09-24T01:04:42.519Z,0.60
2018-09-24T01:05:42.743Z,0.50
2018-09-24T01:06:42.964Z,0.40
2018-09-24T01:07:43.182Z,0.40
2018-09-24T01:08:43.409Z,0.40
2018-09-24T01:09:43.636Z,0.60
2018-09-24T01:10:43.864Z,0.50
2018-09-24T01:11:44.086Z,0.40
2018-09-24T01:12:44.312Z,0.50
2018-09-24T01:13:44.539Z,0.40
2018-09-24T01:14:44.763Z,0.30
2018-09-24T01:15:44.994Z,0.50
2018-09-24T01:16:45.215Z,0.40
2018-09-24T01:17:45.439Z,0.70
2018-09-24T01:18:45.668Z,0.40
2018-09-24T01:19:45.894Z,0.40
2018-09-24T01:20:46.118Z,0.40
2018-09-24T01:21:46.342Z,0.40
2018-09-24T01:22:46.570Z,0.30
2018-09-24T01:23:46.794Z,0.50
2018-09-24T01:24:47.020Z,0.30
2018-09-24T01:25:47.247Z,0.50
2018-09-24T01:26:47.475Z,0.90
2018-09-24T01:27:47.699Z,0.40
2018-09-24T01:28:47.925Z,0.40
2018-09-24T01:29:48.154Z,0.70
2018-09-24T01:30:48.376Z,0.50
2018-09-24T01:31:48.599Z,0.30
2018-09-24T01:32:48.825Z,0.70
2018-09-24T01:33:49.051Z,0.50
2018-09-24T01:34:49.276Z,0.40
2018-09-24T01:35:49.501Z,0.40
2018-09-24T01:36:49.725Z,0.30
2018-09-24T01:37:49.953Z,0.50
2018-09-24T01:38:50.181Z,0.80
2018-09-24T01:39:50.410Z,0.30
2018-09-24T01:40:50.629Z,0.50
2018-09-24T01:41:50.856Z,0.50
2018-09-24T01:42:51.080Z,0.60
2018-09-24T01:43:51.305Z,0.40
2018-09-24T01:44:51.531Z,0.50
2018-09-24T01:45:51.754Z,0.30
2018-09-24T01:46:51.981Z,0.50
2018-09-24T01:47:52.206Z,0.60
2018-09-24T01:48:52.432Z,0.60
2018-09-24T01:49:52.658Z,0.70
2018-09-24T01:50:52.890Z,0.50
2018-09-24T01:51:53.108Z,0.30
2018-09-24T01:52:53.332Z,0.30
2018-09-24T01:53:53.561Z,0.30
2018-09-24T01:54:53.784Z,0.40
2018-09-24T01:55:54.010Z,0.30
2018-09-24T01:56:54.235Z,0.30
2018-09-24T01:57:54.460Z,0.90
2018-09-24T01:58:54.682Z,0.70
2018-09-24T01:59:54.909Z,0.50
2018-09-24T02:00:55.134Z,0.40
2018-09-24T02:01:55.361Z,0.40
2018-09-24T02:02:55.582Z,0.50
2018-09-24T02:03:55.811Z,0.40
2018-09-24T02:04:56.036Z,0.60
2018-09-24T02:05:56.260Z,0.50
2018-09-24T02:06:56.488Z,0.40
2018-09-24T02:07:56.712Z,0.40
2018-09-24T02:08:56.937Z,0.30
2018-09-24T02:09:57.162Z,0.30
2018-09-24T02:10:57.390Z,0.40
2018-09-24T02:11:57.613Z,0.40
2018-09-24T02:12:57.839Z,0.30
2018-09-24T02:13:58.066Z,0.40
2018-09-24T02:14:58.294Z,0.40
2018-09-24T02:15:58.527Z,0.70
2018-09-24T02:16:58.747Z,0.40
2018-09-24T02:17:58.974Z,0.50
2018-09-24T02:18:59.198Z,0.70
2018-09-24T02:19:59.425Z,0.30
2018-09-24T02:20:59.653Z,0.80
2018-09-24T02:21:59.883Z,0.40
2018-09-24T02:23:00.104Z,0.50
2018-09-24T02:24:00.331Z,0.50
2018-09-24T02:25:00.555Z,0.40
2018-09-24T02:26:00.783Z,0.40
2018-09-24T02:27:01.006Z,0.40
2018-09-24T02:28:01.231Z,0.40
2018-09-24T02:29:01.473Z,0.30
2018-09-24T02:30:01.684Z,0.40
2018-09-24T02:31:01.908Z,0.50
2018-09-24T02:32:02.135Z,0.30
2018-09-24T02:33:02.367Z,0.60
2018-09-24T02:34:02.587Z,0.60
2018-09-24T02:35:02.814Z,0.40
2018-09-24T02:36:03.034Z,0.40
2018-09-24T02:37:03.258Z,0.50
2018-09-24T02:38:03.482Z,0.80
2018-09-24T02:39:03.710Z,0.40
2018-09-24T02:40:03.937Z,0.40
2018-09-24T02:41:04.161Z,0.30
2018-09-24T02:42:04.385Z,0.40
2018-09-24T02:43:04.607Z,0.40
2018-09-24T02:44:04.834Z,0.40
2018-09-24T02:45:05.060Z,0.40
2018-09-24T02:46:05.291Z,0.90
2018-09-24T02:47:05.511Z,0.40
2018-09-24T02:48:05.737Z,0.50
2018-09-24T02:49:05.961Z,0.50
2018-09-24T02:50:06.186Z,0.50
2018-09-24T02:51:06.412Z,0.60
2018-09-24T02:52:06.636Z,0.40
2018-09-24T02:53:06.864Z,0.40
2018-09-24T02:54:07.088Z,0.90
2018-09-24T02:55:07.310Z,0.30
2018-09-24T02:56:07.533Z,0.80
2018-09-24T02:57:07.754Z,0.60
2018-09-24T02:58:07.977Z,0.30
2018-09-24T02:59:08.208Z,0.60
2018-09-24T03:00:08.426Z,0.80
2018-09-24T03:01:08.658Z,0.50
2018-09-24T03:02:08.876Z,0.60
2018-09-24T03:03:09.096Z,0.60
2018-09-24T03:04:09.323Z,0.30
2018-09-24T03:05:09.560Z,0.80
2018-09-24T03:06:09.773Z,0.30
2018-09-24T03:07:09.995Z,0.50
2018-09-24T03:08:10.225Z,0.50
2018-09-24T03:09:10.453Z,0.90
2018-09-24T03:10:10.675Z,0.80
2018-09-24T03:11:10.902Z,0.50
2018-09-24T03:12:11.128Z,0.30
2018-09-24T03:13:11.353Z,0.50
2018-09-24T03:14:11.577Z,0.50
2018-09-24T03:15:11.804Z,0.40
2018-09-24T03:16:12.029Z,0.90
2018-09-24T03:17:12.250Z,0.40
2018-09-24T03:18:12.474Z,0.50
2018-09-24T03:19:12.706Z,0.40
2018-09-24T03:20:12.931Z,0.40
2018-09-24T03:21:13.157Z,0.60
2018-09-24T03:22:13.381Z,0.70
2018-09-24T03:23:13.609Z,1.00
2018-09-24T03:24:13.871Z,0.50
2018-09-24T03:25:14.057Z,0.50
2018-09-24T03:26:14.293Z,0.60
2018-09-24T03:27:14.513Z,1.00
2018-09-24T03:28:14.732Z,1.00
2018-09-24T03:29:14.956Z,1.00
2018-09-24T03:30:15.184Z,0.50
2018-09-24T03:31:15.405Z,0.70
2018-09-24T03:32:15.631Z,0.50
2018-09-24T03:33:15.860Z,0.70
2018-09-24T03:34:16.081Z,0.60
2018-09-24T03:35:16.307Z,0.90
2018-09-24T03:36:16.535Z,0.80
2018-09-24T03:37:16.754Z,0.40
2018-09-24T03:38:16.979Z,0.40
2018-09-24T03:39:17.205Z,0.50
2018-09-24T03:40:17.432Z,0.40
2018-09-24T03:41:17.658Z,0.70
2018-09-24T03:42:17.880Z,0.60
2018-09-24T03:43:18.108Z,0.60
2018-09-24T03:44:18.330Z,0.70
2018-09-24T03:45:18.556Z,0.60
2018-09-24T03:46:18.783Z,0.60
2018-09-24T03:47:19.006Z,0.50
2018-09-24T03:48:19.233Z,0.40
2018-09-24T03:49:19.454Z,0.50
2018-09-24T03:50:19.680Z,0.80
2018-09-24T03:51:19.905Z,0.80
2018-09-24T03:52:20.131Z,0.50
2018-09-24T03:53:20.356Z,0.40
2018-09-24T03:54:20.586Z,0.40
2018-09-24T03:55:20.801Z,0.60
2018-09-24T03:56:21.028Z,0.40
2018-09-24T03:57:21.253Z,0.30
2018-09-24T03:58:21.478Z,0.50
2018-09-24T03:59:21.704Z,0.40
2018-09-24T04:00:21.924Z,0.80
2018-09-24T04:01:22.146Z,0.80
2018-09-24T04:02:22.390Z,0.90
2018-09-24T04:03:22.616Z,0.40
2018-09-24T04:04:22.843Z,0.50
2018-09-24T04:05:23.067Z,0.40
2018-09-24T04:06:23.290Z,0.40
2018-09-24T04:07:23.514Z,0.40
2018-09-24T04:08:23.739Z,0.40
2018-09-24T04:09:23.978Z,0.60
2018-09-24T04:10:24.191Z,0.50
2018-09-24T04:11:24.419Z,0.60
2018-09-24T04:12:24.643Z,0.40
2018-09-24T04:13:24.863Z,0.60
2018-09-24T04:14:25.088Z,0.50
2018-09-24T04:15:25.311Z,0.60
2018-09-24T04:16:25.534Z,0.70
2018-09-24T04:17:25.759Z,0.30
2018-09-24T04:18:26.021Z,0.60
2018-09-24T04:19:26.277Z,0.50
2018-09-24T04:20:26.472Z,0.40
2018-09-24T04:21:26.702Z,0.60
2018-09-24T04:22:26.923Z,0.50
2018-09-24T04:23:27.148Z,0.40
2018-09-24T04:24:27.373Z,0.40
2018-09-24T04:25:27.601Z,0.60
2018-09-24T04:26:27.827Z,0.80
2018-09-24T04:27:28.052Z,0.60
2018-09-24T04:28:28.277Z,0.40
2018-09-24T04:29:28.503Z,0.50
2018-09-24T04:30:28.728Z,0.40
2018-09-24T04:31:28.952Z,0.50
2018-09-24T04:32:29.176Z,0.60
2018-09-24T04:33:29.404Z,0.60
2018-09-24T04:34:29.628Z,0.60
2018-09-24T04:35:29.855Z,0.70
2018-09-24T04:36:30.078Z,0.40
2018-09-24T04:37:30.303Z,0.70
2018-09-24T04:38:30.529Z,0.50
2018-09-24T04:39:30.810Z,0.60
2018-09-24T04:40:30.977Z,0.30
2018-09-24T04:41:31.202Z,0.60
2018-09-24T04:42:31.429Z,0.60
2018-09-24T04:43:31.652Z,0.90
2018-09-24T04:44:31.879Z,0.50
2018-09-24T04:45:32.101Z,0.50
2018-09-24T04:46:32.328Z,0.30
2018-09-24T04:47:32.555Z,0.60
2018-09-24T04:48:32.774Z,0.50
2018-09-24T04:49:32.999Z,0.70
2018-09-24T04:50:33.222Z,0.60
2018-09-24T04:51:33.447Z,0.40
2018-09-24T04:52:33.678Z,0.30
2018-09-24T04:53:33.898Z,0.40
2018-09-24T04:54:34.125Z,0.50
2018-09-24T04:55:34.350Z,0.60
2018-09-24T04:56:34.576Z,0.40
2018-09-24T04:57:34.803Z,0.90
2018-09-24T04:58:35.034Z,0.70
2018-09-24T04:59:35.252Z,0.80
2018-09-24T05:00:35.473Z,1.20
2018-09-24T05:01:35.700Z,0.40
2018-09-24T05:02:35.927Z,0.40
2018-09-24T05:03:36.151Z,0.50
2018-09-24T05:04:36.376Z,1.60
2018-09-24T05:05:36.603Z,0.60
2018-09-24T05:06:36.829Z,0.60
2018-09-24T05:07:37.059Z,4.40
2018-09-24T05:08:37.283Z,0.70
2018-09-24T05:09:37.511Z,1.80
2018-09-24T05:10:37.737Z,2.10
2018-09-24T05:11:37.959Z,5.30
2018-09-24T05:12:38.187Z,5.70
2018-09-24T05:13:38.412Z,3.80
2018-09-24T05:14:38.635Z,13.20
2018-09-24T05:15:38.859Z,8.40
2018-09-24T05:16:39.137Z,11.30
2018-09-24T05:17:39.315Z,10.60
2018-09-24T05:18:39.536Z,3.30
2018-09-24T05:19:39.761Z,1.60
2018-09-24T05:20:39.988Z,28.60
2018-09-24T05:21:40.212Z,21.80
2018-09-24T05:22:40.439Z,9.90
2018-09-24T05:23:40.663Z,2.30
2018-09-24T05:24:40.891Z,1.70
2018-09-24T05:25:41.115Z,1.70
2018-09-24T05:26:41.330Z,2.30
2018-09-24T05:27:41.553Z,12.60
2018-09-24T05:28:41.779Z,5.40
2018-09-24T05:29:42.007Z,18.50
2018-09-24T05:30:42.232Z,8.40
2018-09-24T05:31:42.460Z,3.70
2018-09-24T05:32:42.684Z,3.00
2018-09-24T05:33:42.911Z,1.80
2018-09-24T05:34:43.134Z,1.10
2018-09-24T05:35:43.360Z,1.20
2018-09-24T05:36:43.588Z,1.20
2018-09-24T05:37:43.814Z,1.40
2018-09-24T05:38:44.043Z,0.80
2018-09-24T05:39:44.263Z,1.00
2018-09-24T05:40:44.492Z,0.80
2018-09-24T05:41:44.718Z,0.70
2018-09-24T05:42:44.941Z,0.60
2018-09-24T05:43:45.167Z,1.10
2018-09-24T05:44:45.399Z,0.60
2018-09-24T05:45:45.621Z,0.80
2018-09-24T05:46:45.845Z,0.60
2018-09-24T05:47:46.087Z,0.90
2018-09-24T05:48:46.295Z,1.10
2018-09-24T05:49:46.557Z,3.50
2018-09-24T05:50:46.781Z,1.10
2018-09-24T05:51:47.005Z,2.10
2018-09-24T05:52:47.231Z,0.60
2018-09-24T05:53:47.457Z,2.00
2018-09-24T05:54:47.690Z,2.20
2018-09-24T05:55:47.908Z,2.70
2018-09-24T05:56:48.193Z,2.20
2018-09-24T05:57:48.430Z,2.40
2018-09-24T05:58:48.657Z,2.50
2018-09-24T05:59:48.884Z,1.50
2018-09-24T06:00:49.110Z,1.90
2018-09-24T06:01:49.335Z,2.20
2018-09-24T06:02:49.562Z,2.70
2018-09-24T06:03:49.786Z,1.80
2018-09-24T06:04:50.013Z,1.40
2018-09-24T06:05:50.240Z,1.40
2018-09-24T06:06:50.465Z,1.50
2018-09-24T06:07:50.692Z,1.00
2018-09-24T06:08:50.917Z,1.30
2018-09-24T06:09:51.142Z,0.90
2018-09-24T06:10:51.368Z,1.10
2018-09-24T06:11:51.597Z,2.60
2018-09-24T06:12:51.823Z,2.20
2018-09-24T06:13:52.050Z,2.30
2018-09-24T06:14:52.276Z,2.90
2018-09-24T06:15:52.506Z,2.60
2018-09-24T06:16:52.731Z,1.20
2018-09-24T06:17:52.980Z,2.10
2018-09-24T06:18:53.214Z,0.80
2018-09-24T06:19:53.413Z,1.50
2018-09-24T06:20:53.635Z,2.80
2018-09-24T06:21:53.860Z,2.40
2018-09-24T06:22:54.089Z,2.00
2018-09-24T06:23:54.313Z,1.90
2018-09-24T06:24:54.543Z,1.00
2018-09-24T06:25:54.770Z,1.20
2018-09-24T06:26:54.993Z,1.60
2018-09-24T06:27:55.217Z,1.80
2018-09-24T06:28:55.443Z,1.30
2018-09-24T06:29:55.674Z,1.10
2018-09-24T06:30:55.898Z,1.70
2018-09-24T06:31:56.123Z,1.50
2018-09-24T06:32:56.352Z,0.80
2018-09-24T06:33:56.580Z,1.60
2018-09-24T06:34:56.806Z,0.60
2018-09-24T06:35:57.033Z,1.10
2018-09-24T06:36:57.263Z,1.30
2018-09-24T06:37:57.485Z,0.70
2018-09-24T06:38:57.712Z,0.90
2018-09-24T06:39:57.962Z,1.20
2018-09-24T06:40:58.165Z,0.70
2018-09-24T06:41:58.392Z,1.00
2018-09-24T06:42:58.619Z,1.50
2018-09-24T06:43:58.843Z,1.10
2018-09-24T06:44:59.071Z,0.80
2018-09-24T06:45:59.294Z,0.80
2018-09-24T06:46:59.520Z,0.40
2018-09-24T06:47:59.748Z,0.60
2018-09-24T06:48:59.974Z,0.40
2018-09-24T06:50:00.202Z,0.80
2018-09-24T06:51:00.428Z,1.00
2018-09-24T06:52:00.655Z,1.00
2018-09-24T06:53:00.881Z,0.80
2018-09-24T06:54:01.109Z,0.90
2018-09-24T06:55:01.336Z,1.20
2018-09-24T06:56:01.559Z,0.70
2018-09-24T06:57:01.791Z,0.80
2018-09-24T06:58:02.015Z,0.80
2018-09-24T06:59:02.240Z,0.90
2018-09-24T07:00:02.467Z,1.30
2018-09-24T07:01:02.692Z,0.80
2018-09-24T07:02:02.922Z,0.80
2018-09-24T07:03:03.148Z,0.90
2018-09-24T07:04:03.379Z,0.50
2018-09-24T07:05:03.604Z,1.00
2018-09-24T07:06:03.828Z,0.40
2018-09-24T07:07:04.056Z,0.60
2018-09-24T07:08:04.282Z,1.40
2018-09-24T07:09:04.509Z,0.90
2018-09-24T07:10:04.735Z,0.90
2018-09-24T07:11:04.959Z,1.00
2018-09-24T07:12:05.185Z,0.90
2018-09-24T07:13:05.410Z,0.90
2018-09-24T07:14:05.637Z,0.60
2018-09-24T07:15:05.856Z,0.90
2018-09-24T07:16:06.084Z,0.90
2018-09-24T07:17:06.311Z,0.60
2018-09-24T07:18:06.537Z,1.10
2018-09-24T07:19:06.763Z,0.90
2018-09-24T07:20:06.990Z,1.00
2018-09-24T07:21:07.212Z,3.10
2018-09-24T07:22:07.440Z,3.70
2018-09-24T07:23:07.667Z,2.90
2018-09-24T07:24:07.898Z,3.50
2018-09-24T07:25:08.130Z,5.20
2018-09-24T07:26:08.358Z,8.10
2018-09-24T07:27:08.583Z,8.40
2018-09-24T07:28:08.881Z,8.00
2018-09-24T07:29:09.037Z,6.00
2018-09-24T07:30:09.263Z,3.10
2018-09-24T07:31:09.488Z,4.70
2018-09-24T07:32:09.716Z,4.80
2018-09-24T07:33:09.964Z,3.90
2018-09-24T07:34:10.174Z,4.30
2018-09-24T07:35:10.397Z,3.20
2018-09-24T07:36:10.623Z,3.10
2018-09-24T07:37:10.850Z,2.70
2018-09-24T07:38:11.076Z,3.10
2018-09-24T07:39:11.304Z,3.00
2018-09-24T07:40:11.532Z,3.10
2018-09-24T07:41:11.755Z,3.60
2018-09-24T07:42:11.982Z,2.90
2018-09-24T07:43:12.277Z,3.10
2018-09-24T07:44:12.436Z,3.00
2018-09-24T07:45:12.665Z,3.50
2018-09-24T07:46:12.891Z,2.90
2018-09-24T07:47:13.117Z,3.70
2018-09-24T07:48:13.357Z,3.40
2018-09-24T07:49:13.577Z,3.20
2018-09-24T07:50:13.802Z,3.30
2018-09-24T07:51:14.036Z,2.60
2018-09-24T07:52:14.257Z,2.70
2018-09-24T07:53:14.475Z,2.80
2018-09-24T07:54:14.699Z,2.90
2018-09-24T07:55:14.941Z,3.20
2018-09-24T07:56:15.153Z,2.60
2018-09-24T07:57:15.379Z,2.90
2018-09-24T07:58:15.611Z,2.30
2018-09-24T07:59:15.835Z,3.40
2018-09-24T08:00:16.062Z,2.90
2018-09-24T08:01:16.290Z,2.70
2018-09-24T08:02:16.517Z,2.40
2018-09-24T08:03:16.745Z,3.20
2018-09-24T08:04:16.972Z,2.90
2018-09-24T08:05:17.203Z,2.40
2018-09-24T08:06:17.426Z,3.20
2018-09-24T08:07:17.687Z,2.80
2018-09-24T08:08:17.885Z,3.10
2018-09-24T08:09:18.110Z,2.40
2018-09-24T08:10:18.336Z,2.10
2018-09-24T08:11:18.565Z,3.00
2018-09-24T08:12:18.792Z,2.60
2018-09-24T08:13:19.090Z,3.10
2018-09-24T08:14:19.242Z,2.70
2018-09-24T08:15:19.469Z,2.70
2018-09-24T08:16:19.695Z,2.70
2018-09-24T08:17:19.923Z,2.40
2018-09-24T08:18:20.150Z,3.40
2018-09-24T08:19:20.403Z,2.90
2018-09-24T08:20:20.608Z,3.00
2018-09-24T08:21:20.832Z,3.20
2018-09-24T08:22:21.059Z,3.10
2018-09-24T08:23:21.285Z,3.10
2018-09-24T08:24:21.515Z,2.50
2018-09-24T08:25:21.743Z,3.20
2018-09-24T08:26:21.973Z,2.90
2018-09-24T08:27:22.196Z,4.20
2018-09-24T08:28:22.440Z,3.50
2018-09-24T08:29:22.694Z,2.70
2018-09-24T08:30:22.896Z,3.50
2018-09-24T08:31:23.119Z,2.50
2018-09-24T08:32:23.347Z,2.60
2018-09-24T08:33:23.579Z,3.20
2018-09-24T08:34:23.800Z,2.40
2018-09-24T08:35:24.027Z,2.10
2018-09-24T08:36:24.312Z,3.80
2018-09-24T08:37:24.485Z,2.80
2018-09-24T08:38:24.710Z,3.40
2018-09-24T08:39:24.937Z,2.90
2018-09-24T08:40:25.170Z,4.00
2018-09-24T08:41:25.394Z,3.10
2018-09-24T08:42:25.623Z,3.00
2018-09-24T08:43:25.849Z,3.00
2018-09-24T08:44:26.126Z,3.00
2018-09-24T08:45:26.345Z,2.70
2018-09-24T08:46:26.575Z,2.90
2018-09-24T08:47:26.802Z,2.60
2018-09-24T08:48:27.030Z,3.40
2018-09-24T08:49:27.258Z,3.90
2018-09-24T08:50:27.482Z,3.20
2018-09-24T08:51:27.709Z,2.20
2018-09-24T08:52:27.939Z,2.20
2018-09-24T08:53:28.219Z,2.30
2018-09-24T08:54:28.395Z,3.30
2018-09-24T08:55:28.621Z,2.70
2018-09-24T08:56:28.847Z,2.90
2018-09-24T08:57:29.077Z,3.00
2018-09-24T08:58:29.303Z,2.90
2018-09-24T08:59:29.531Z,2.30
2018-09-24T09:00:29.758Z,2.90
2018-09-24T09:01:29.990Z,3.00
2018-09-24T09:02:30.214Z,3.70
2018-09-24T09:03:30.445Z,4.20
2018-09-24T09:04:30.664Z,4.10
2018-09-24T09:05:30.891Z,4.00
2018-09-24T09:06:31.119Z,3.00
2018-09-24T09:07:31.346Z,3.40
2018-09-24T09:08:31.574Z,3.80
2018-09-24T09:09:31.800Z,3.50
2018-09-24T09:10:32.028Z,2.70
2018-09-24T09:11:32.260Z,3.50
2018-09-24T09:12:32.482Z,3.00
2018-09-24T09:13:32.711Z,1.90
2018-09-24T09:14:32.939Z,2.10
2018-09-24T09:15:33.165Z,2.30
2018-09-24T09:16:33.398Z,3.00
2018-09-24T09:17:33.619Z,3.20
2018-09-24T09:18:33.847Z,2.20
2018-09-24T09:19:34.075Z,2.50
2018-09-24T09:20:34.304Z,2.70
2018-09-24T09:21:34.533Z,2.50
2018-09-24T09:22:34.760Z,3.00
2018-09-24T09:23:34.990Z,3.40
2018-09-24T09:24:35.217Z,2.50
2018-09-24T09:25:35.450Z,3.40
2018-09-24T09:26:35.678Z,3.80
2018-09-24T09:27:35.908Z,3.50
2018-09-24T09:28:36.133Z,3.00
2018-09-24T09:29:36.360Z,3.20
2018-09-24T09:30:36.588Z,2.50
2018-09-24T09:31:36.817Z,3.40
2018-09-24T09:32:37.043Z,2.50
2018-09-24T09:33:37.276Z,2.10
2018-09-24T09:34:37.500Z,3.00
2018-09-24T09:35:37.726Z,2.70
2018-09-24T09:36:37.956Z,2.60
2018-09-24T09:37:38.182Z,2.20
2018-09-24T09:38:38.409Z,3.20
2018-09-24T09:39:38.643Z,2.00
2018-09-24T09:40:38.867Z,2.50
2018-09-24T09:41:39.106Z,2.80
2018-09-24T09:42:39.326Z,2.20
2018-09-24T09:43:39.556Z,2.40
2018-09-24T09:44:39.785Z,3.30
2018-09-24T09:45:40.013Z,2.60
2018-09-24T09:46:40.282Z,2.30
2018-09-24T09:47:40.470Z,3.00
2018-09-24T09:48:40.699Z,2.70
2018-09-24T09:49:40.931Z,2.10
2018-09-24T09:50:41.154Z,1.90
2018-09-24T09:51:41.384Z,2.20
2018-09-24T09:52:41.619Z,2.20
2018-09-24T09:53:41.935Z,3.00
2018-09-24T09:54:42.073Z,2.50
2018-09-24T09:55:42.302Z,2.00
2018-09-24T09:56:42.533Z,2.20
2018-09-24T09:57:42.761Z,2.00
2018-09-24T09:58:42.989Z,2.10
2018-09-24T09:59:43.216Z,2.00
2018-09-24T10:00:43.446Z,2.20
2018-09-24T10:01:43.676Z,3.30
2018-09-24T10:02:43.905Z,2.00
2018-09-24T10:03:44.133Z,2.20
2018-09-24T10:04:44.422Z,2.40
2018-09-24T10:05:44.588Z,2.50
2018-09-24T10:06:44.820Z,2.60
2018-09-24T10:07:45.049Z,3.30
2018-09-24T10:08:45.276Z,3.50
2018-09-24T10:09:45.504Z,2.40
2018-09-24T10:10:45.732Z,2.40
2018-09-24T10:11:45.951Z,2.50
2018-09-24T10:12:46.196Z,2.80
2018-09-24T10:13:46.423Z,2.40
2018-09-24T10:14:46.656Z,2.50
2018-09-24T10:15:46.884Z,2.50
2018-09-24T10:16:47.111Z,2.00
2018-09-24T10:17:47.341Z,2.80
2018-09-24T10:18:47.571Z,3.00
2018-09-24T10:19:47.801Z,2.70
2018-09-24T10:20:48.029Z,2.70
2018-09-24T10:21:48.257Z,2.80
2018-09-24T10:22:48.490Z,2.60
2018-09-24T10:23:48.711Z,4.00
2018-09-24T10:24:48.940Z,3.80
2018-09-24T10:25:49.170Z,6.80
2018-09-24T10:26:49.399Z,4.30
2018-09-24T10:27:49.629Z,4.50
2018-09-24T10:28:49.856Z,5.50
2018-09-24T10:29:50.090Z,5.60
2018-09-24T10:30:50.315Z,5.70
2018-09-24T10:31:50.547Z,4.70
2018-09-24T10:32:50.774Z,6.00
2018-09-24T10:33:51.090Z,5.80
2018-09-24T10:34:51.237Z,3.50
2018-09-24T10:35:51.460Z,7.10
2018-09-24T10:36:51.688Z,11.50
2018-09-24T10:37:51.915Z,6.50
2018-09-24T10:38:52.151Z,5.10
2018-09-24T10:39:52.372Z,3.40
2018-09-24T10:40:52.599Z,3.50
2018-09-24T10:41:52.838Z,4.40
2018-09-24T10:42:53.068Z,3.40
2018-09-24T10:43:53.297Z,3.10
2018-09-24T10:44:53.524Z,4.60
2018-09-24T10:45:53.780Z,5.80
2018-09-24T10:46:53.982Z,2.40
2018-09-24T10:47:54.210Z,5.80
2018-09-24T10:48:54.435Z,4.00
2018-09-24T10:49:54.661Z,4.50
2018-09-24T10:50:54.890Z,4.20
2018-09-24T10:51:55.118Z,3.20
2018-09-24T10:52:55.375Z,3.20
2018-09-24T10:53:55.575Z,2.60
2018-09-24T10:54:55.803Z,3.30
2018-09-24T10:55:56.193Z,4.60
2018-09-24T10:56:56.261Z,4.80
2018-09-24T10:57:56.491Z,1.80
2018-09-24T10:58:56.716Z,4.60
2018-09-24T10:59:56.933Z,5.50
2018-09-24T11:00:57.171Z,4.50
2018-09-24T11:01:57.401Z,4.70
2018-09-24T11:02:57.632Z,4.20
2018-09-24T11:03:57.867Z,6.80
2018-09-24T11:04:58.174Z,4.40
2018-09-24T11:05:58.319Z,3.30
2018-09-24T11:06:58.549Z,4.80
2018-09-24T11:07:58.777Z,4.30
2018-09-24T11:08:59.002Z,5.20
2018-09-24T11:09:59.233Z,3.70
2018-09-24T11:10:59.457Z,3.60
2018-09-24T11:11:59.680Z,3.00
2018-09-24T11:12:59.918Z,4.70
2018-09-24T11:14:00.146Z,4.10
2018-09-24T11:15:00.372Z,3.80
2018-09-24T11:16:00.700Z,6.50
2018-09-24T11:17:00.955Z,4.60
2018-09-24T11:18:01.094Z,7.00
2018-09-24T11:19:01.285Z,1.90
2018-09-24T11:20:01.512Z,3.70
2018-09-24T11:21:01.740Z,2.50
2018-09-24T11:22:01.978Z,3.40
2018-09-24T11:23:02.197Z,6.00
2018-09-24T11:24:02.414Z,6.20
2018-09-24T11:25:02.654Z,2.20
2018-09-24T11:26:02.885Z,3.70
2018-09-24T11:27:03.116Z,3.50
2018-09-24T11:28:03.344Z,3.60
2018-09-24T11:29:03.568Z,2.60
2018-09-24T11:30:03.801Z,5.20
2018-09-24T11:31:04.029Z,4.20
2018-09-24T11:32:04.257Z,3.40
2018-09-24T11:33:04.488Z,3.80
2018-09-24T11:34:04.716Z,4.50
2018-09-24T11:35:04.948Z,4.70
2018-09-24T11:36:05.173Z,6.20
2018-09-24T11:37:05.400Z,5.30
2018-09-24T11:38:05.631Z,4.40
2018-09-24T11:39:05.859Z,4.40
2018-09-24T11:40:06.093Z,2.10
2018-09-24T11:41:06.328Z,2.30
2018-09-24T11:42:06.555Z,2.40
2018-09-24T11:43:06.784Z,3.10
2018-09-24T11:44:07.018Z,5.10
2018-09-24T11:45:07.244Z,2.40
2018-09-24T11:46:07.472Z,2.20
2018-09-24T11:47:07.810Z,2.90
2018-09-24T11:48:07.929Z,1.50
2018-09-24T11:49:08.161Z,3.60
2018-09-24T11:50:08.390Z,4.40
2018-09-24T11:51:08.617Z,1.90
2018-09-24T11:52:08.846Z,2.60
2018-09-24T11:53:09.084Z,2.90
2018-09-24T11:54:09.319Z,2.20
2018-09-24T11:55:09.544Z,3.50
2018-09-24T11:56:09.787Z,2.60
2018-09-24T11:57:10.002Z,5.00
2018-09-24T11:58:10.230Z,3.50
2018-09-24T11:59:10.461Z,3.20
2018-09-24T12:00:10.691Z,2.40
2018-09-24T12:01:10.921Z,3.20
2018-09-24T12:02:11.198Z,3.30
2018-09-24T12:03:11.378Z,3.10
2018-09-24T12:04:11.606Z,3.30
2018-09-24T12:05:11.835Z,3.90
2018-09-24T12:06:12.064Z,4.00
2018-09-24T12:07:12.294Z,3.50
2018-09-24T12:08:12.521Z,3.80
2018-09-24T12:09:12.753Z,3.70
2018-09-24T12:10:13.016Z,3.80
2018-09-24T12:11:13.207Z,3.80
2018-09-24T12:12:13.436Z,3.50
2018-09-24T12:13:13.665Z,3.60
2018-09-24T12:14:13.891Z,3.40
2018-09-24T12:15:14.122Z,2.70
2018-09-24T12:16:14.350Z,3.00
2018-09-24T12:17:14.580Z,3.70
2018-09-24T12:18:14.807Z,3.10
2018-09-24T12:19:15.038Z,2.60
2018-09-24T12:20:15.267Z,3.10
2018-09-24T12:21:15.494Z,1.50
2018-09-24T12:22:15.726Z,3.40
2018-09-24T12:23:15.950Z,3.00
2018-09-24T12:24:16.211Z,2.50
2018-09-24T12:25:16.409Z,2.90
2018-09-24T12:26:16.638Z,2.70
2018-09-24T12:27:16.867Z,3.10
2018-09-24T12:28:17.099Z,2.20
2018-09-24T12:29:17.325Z,2.80
2018-09-24T12:30:17.554Z,2.20
2018-09-24T12:31:17.787Z,2.50
2018-09-24T12:32:18.012Z,3.00
2018-09-24T12:33:18.243Z,1.40
2018-09-24T12:34:18.470Z,2.00
2018-09-24T12:35:18.700Z,2.40
2018-09-24T12:36:18.929Z,2.00
2018-09-24T12:37:19.156Z,2.40
2018-09-24T12:38:19.387Z,1.50
2018-09-24T12:39:19.659Z,1.70
2018-09-24T12:40:19.843Z,2.00
2018-09-24T12:41:20.071Z,2.40
2018-09-24T12:42:20.303Z,1.60
2018-09-24T12:43:20.536Z,2.10
2018-09-24T12:44:20.769Z,2.60
2018-09-24T12:45:20.989Z,2.10
2018-09-24T12:46:21.220Z,2.10
2018-09-24T12:47:21.447Z,1.90
2018-09-24T12:48:21.733Z,2.30
2018-09-24T12:49:21.910Z,1.80
2018-09-24T12:50:22.132Z,2.10
2018-09-24T12:51:22.360Z,1.50
2018-09-24T12:52:22.589Z,1.40
2018-09-24T12:53:22.842Z,1.80
2018-09-24T12:54:23.048Z,1.80
2018-09-24T12:55:23.278Z,1.70
2018-09-24T12:56:23.506Z,1.50
2018-09-24T12:57:23.735Z,1.60
2018-09-24T12:58:23.963Z,1.90
2018-09-24T12:59:24.189Z,1.90
2018-09-24T13:00:24.420Z,1.40
2018-09-24T13:01:24.649Z,1.50
2018-09-24T13:02:24.878Z,1.80
2018-09-24T13:03:25.111Z,1.50
2018-09-24T13:04:25.340Z,2.10
2018-09-24T13:05:25.568Z,1.70
2018-09-24T13:06:25.797Z,1.80
2018-09-24T13:07:26.029Z,1.20
2018-09-24T13:08:26.295Z,1.60
2018-09-24T13:09:26.487Z,1.70
2018-09-24T13:10:26.717Z,1.90
2018-09-24T13:11:26.945Z,1.60
2018-09-24T13:12:27.175Z,2.00
2018-09-24T13:13:27.405Z,1.80
2018-09-24T13:14:27.637Z,1.40
2018-09-24T13:15:27.864Z,1.50
2018-09-24T13:16:28.090Z,1.60
2018-09-24T13:17:28.316Z,1.70
2018-09-24T13:18:28.545Z,1.60
2018-09-24T13:19:28.776Z,1.70
2018-09-24T13:20:29.007Z,2.10
2018-09-24T13:21:29.233Z,1.60